Luminous Kobe-2 — JJ3868 — position and weather

sailwx.info

Track history (hours):
 
Tides and Currents Weather Stations Pressure Air Temp Water Temp Dewpoint Dewpoint Depression Visibility Wind Speed Wind Dir Waves Ship Positions

Luminous Kobe-2

Last reported at 2016-Apr-30 18:30 UTC. Time now 2016-Apr-30 18:44 UTC.
Position N 34°41' E 135°11'.

Length 105 m; draft 4.5 m.

Type: Passenger vessel. MMSI: 431000469.

Date/timePositionNaut miles runAvg speedWind from/ knotsBaromVisibWave heightAir tempDewpointWater temp
2016-Apr-30 18:30N 34°41' E 135°11'0 0.0
2016-Apr-30 17:30N 34°41' E 135°11'0 0.0
2016-Apr-30 16:30N 34°41' E 135°11'0 0.0
2016-Apr-30 15:30N 34°41' E 135°11'0 0.0
2016-Apr-30 14:30N 34°41' E 135°11'0 0.0
2016-Apr-30 13:12N 34°41' E 135°11'0 0.0
2016-Apr-30 12:18N 34°41' E 135°11'710.0
2016-Apr-30 11:33N 34°35' E 135°06'4 3.5
2016-Apr-30 10:34N 34°37' E 135°09'4 3.6
2016-Apr-30 09:30N 34°41' E 135°11'7 7.5
2016-Apr-30 08:33N 34°35' E 135°06'2 2.4
2016-Apr-30 07:33N 34°37' E 135°08'5 4.1
2016-Apr-30 06:25N 34°41' E 135°11'0 0.0
2016-Apr-30 05:25N 34°41' E 135°11'2 2.8
2016-Apr-30 04:34N 34°38' E 135°11'3 3.0
2016-Apr-30 03:34N 34°37' E 135°14'4 4.3
2016-Apr-30 02:31N 34°41' E 135°11'0 0.0
2016-Apr-30 01:31N 34°41' E 135°11'0 0.0
2016-Apr-30 00:31N 34°41' E 135°11'0 0.0
2016-Apr-29 23:31N 34°41' E 135°11'0 0.0
2016-Apr-29 22:31N 34°41' E 135°11'0 0.0
2016-Apr-29 21:31N 34°41' E 135°11'0 0.0
2016-Apr-29 20:31N 34°41' E 135°11'0 0.0
2016-Apr-29 19:31N 34°41' E 135°11'0 0.0
2016-Apr-29 18:25N 34°41' E 135°11'0 0.0
2016-Apr-29 17:31N 34°41' E 135°11'0 0.0
2016-Apr-29 16:31N 34°41' E 135°11'0 0.0
2016-Apr-29 15:31N 34°41' E 135°11'0 0.0
2016-Apr-29 14:31N 34°41' E 135°11'0 0.0
2016-Apr-29 13:31N 34°41' E 135°11'0 0.0
2016-Apr-29 12:19N 34°41' E 135°11'810.6
2016-Apr-29 11:33N 34°34' E 135°05'4 4.0
2016-Apr-29 10:33N 34°37' E 135°09'4 3.2
2016-Apr-29 09:15N 34°41' E 135°11'3 3.8
2016-Apr-29 08:33N 34°38' E 135°11'2 2.1
2016-Apr-29 07:34N 34°37' E 135°13'4 3.5
2016-Apr-29 06:28N 34°41' E 135°11'0 0.0
2016-Apr-29 05:28N 34°41' E 135°11'3 3.0
2016-Apr-29 04:33N 34°38' E 135°11'2 2.2
2016-Apr-29 03:33N 34°37' E 135°13'4 3.9
2016-Apr-29 02:30N 34°41' E 135°11'0 0.0
2016-Apr-29 01:24N 34°41' E 135°11'0 0.0
2016-Apr-29 00:18N 34°41' E 135°11'0 0.0
2016-Apr-28 23:30N 34°41' E 135°11'0 0.0
2016-Apr-28 22:30N 34°41' E 135°11'0 0.0
2016-Apr-28 21:24N 34°41' E 135°11'0 0.0
2016-Apr-28 20:30N 34°41' E 135°11'0 0.0
2016-Apr-28 19:30N 34°41' E 135°11'0 0.0
2016-Apr-28 18:30N 34°41' E 135°11'0 0.0
2016-Apr-28 17:24N 34°41' E 135°11'0 0.0
2016-Apr-28 16:30N 34°41' E 135°11'0 0.0
2016-Apr-28 15:30N 34°41' E 135°11'0 0.0
2016-Apr-28 14:30N 34°41' E 135°11'0 0.0
2016-Apr-28 13:30N 34°41' E 135°11'0 0.0
2016-Apr-28 12:30N 34°41' E 135°11'7 7.1
2016-Apr-28 11:34N 34°36' E 135°06'1 1.0
2016-Apr-28 10:34N 34°37' E 135°07'6 5.5
2016-Apr-28 09:33N 34°41' E 135°11'5 4.8
2016-Apr-28 08:32N 34°37' E 135°07'5 4.5
2016-Apr-28 07:28N 34°41' E 135°11'0 0.0
2016-Apr-28 06:22N 34°41' E 135°11'0 0.0
2016-Apr-28 05:28N 34°41' E 135°11'3 2.8
2016-Apr-28 04:33N 34°38' E 135°11'3 2.6
2016-Apr-28 03:33N 34°37' E 135°13'4 4.2
2016-Apr-28 02:32N 34°41' E 135°11'0 0.0
2016-Apr-28 01:32N 34°41' E 135°11'0 0.0
2016-Apr-28 00:32N 34°41' E 135°11'0 0.0
2016-Apr-27 23:26N 34°41' E 135°11'0 0.0
2016-Apr-27 22:26N 34°41' E 135°11'0 0.0
2016-Apr-27 21:26N 34°41' E 135°11'0 0.0
2016-Apr-27 20:32N 34°41' E 135°11'0 0.0
2016-Apr-27 19:26N 34°41' E 135°11'0 0.0
2016-Apr-27 18:32N 34°41' E 135°11'0 0.0
2016-Apr-27 17:32N 34°41' E 135°11'0 0.0
2016-Apr-27 16:32N 34°41' E 135°11'0 0.0
2016-Apr-27 15:32N 34°41' E 135°11'0 0.0
2016-Apr-27 14:32N 34°41' E 135°11'0 0.0
2016-Apr-27 13:32N 34°41' E 135°11'0 0.0
2016-Apr-27 12:32N 34°41' E 135°11'6 6.4
2016-Apr-27 11:33N 34°36' E 135°07'1 1.1
2016-Apr-27 10:34N 34°37' E 135°07'6 5.5
2016-Apr-27 09:33N 34°41' E 135°11'5 4.8
2016-Apr-27 08:33N 34°38' E 135°07'5 4.7
2016-Apr-27 07:32N 34°41' E 135°11'0 0.0
2016-Apr-27 06:32N 34°41' E 135°11'0 0.0
2016-Apr-27 05:20N 34°41' E 135°11'3 3.3
2016-Apr-27 04:34N 34°38' E 135°11'3 2.7
2016-Apr-27 03:34N 34°37' E 135°14'4 4.0
2016-Apr-27 02:30N 34°41' E 135°11'0 0.0
2016-Apr-27 01:30N 34°41' E 135°11'0 0.0
2016-Apr-27 00:12N 34°41' E 135°11'0 0.0
2016-Apr-26 23:30N 34°41' E 135°11'0 0.0
2016-Apr-26 22:30N 34°41' E 135°11'0 0.0
2016-Apr-26 21:30N 34°41' E 135°11'0 0.0
2016-Apr-26 20:24N 34°41' E 135°11'0 0.0
2016-Apr-26 19:30N 34°41' E 135°11'0 0.0
2016-Apr-26 18:30N 34°41' E 135°11'0 0.0
2016-Apr-26 17:24N 34°41' E 135°11'0 0.0
2016-Apr-26 16:30N 34°41' E 135°11'0 0.0
2016-Apr-26 15:30N 34°41' E 135°11'0 0.0
2016-Apr-26 14:30N 34°41' E 135°11'0 0.0
2016-Apr-26 13:30N 34°41' E 135°11'0 0.0
2016-Apr-26 12:30N 34°41' E 135°11'7 7.2
2016-Apr-26 11:33N 34°35' E 135°06'2 1.5
2016-Apr-26 10:33N 34°37' E 135°07'5 5.0
2016-Apr-26 09:28N 34°41' E 135°11'5 5.0
2016-Apr-26 08:33N 34°38' E 135°07'5 4.6
2016-Apr-26 07:32N 34°41' E 135°11'0 0.0
2016-Apr-26 06:32N 34°41' E 135°11'0 0.0
2016-Apr-26 05:32N 34°41' E 135°11'3 3.1
2016-Apr-26 04:33N 34°38' E 135°10'4 3.8
2016-Apr-26 03:33N 34°37' E 135°14'4 4.0
2016-Apr-26 02:31N 34°41' E 135°11'1 1.3
2016-Apr-26 01:33N 34°40' E 135°11'1 1.2
2016-Apr-26 00:29N 34°41' E 135°11'0 0.0
2016-Apr-25 23:17N 34°41' E 135°11'0 0.0
2016-Apr-25 22:23N 34°41' E 135°11'0 0.0
2016-Apr-25 21:17N 34°41' E 135°11'0 0.0
2016-Apr-25 20:29N 34°41' E 135°11'0 0.0
2016-Apr-25 19:29N 34°41' E 135°11'0 0.0
2016-Apr-25 18:29N 34°41' E 135°11'0 0.0
2016-Apr-25 17:29N 34°41' E 135°11'0 0.0
2016-Apr-25 16:29N 34°41' E 135°11'0 0.0
2016-Apr-25 15:29N 34°41' E 135°11'0 0.0
2016-Apr-25 14:29N 34°41' E 135°11'0 0.0
2016-Apr-25 13:29N 34°41' E 135°11'0 0.0
2016-Apr-25 12:29N 34°41' E 135°11'7 7.7
2016-Apr-25 11:34N 34°35' E 135°06'2 1.6
2016-Apr-25 10:33N 34°37' E 135°07'6 5.5
2016-Apr-25 09:33N 34°41' E 135°11'5 4.8
2016-Apr-25 08:34N 34°38' E 135°07'5 4.8
2016-Apr-25 07:33N 34°41' E 135°11'0 0.0
2016-Apr-25 06:27N 34°41' E 135°11'0 0.0
2016-Apr-25 05:33N 34°41' E 135°11'2 2.3
2016-Apr-25 04:34N 34°39' E 135°11'3 2.8
2016-Apr-25 03:34N 34°37' E 135°14'5 4.4
2016-Apr-25 02:30N 34°41' E 135°11'0 0.0
2016-Apr-25 01:30N 34°41' E 135°11'0 0.0
2016-Apr-25 00:30N 34°41' E 135°11'0 0.0
2016-Apr-24 23:24N 34°41' E 135°11'0 0.0
2016-Apr-24 22:30N 34°41' E 135°11'0 0.0
2016-Apr-24 21:24N 34°41' E 135°11'0 0.0
2016-Apr-24 20:30N 34°41' E 135°11'0 0.0
2016-Apr-24 19:24N 34°41' E 135°11'0 0.0
2016-Apr-24 18:30N 34°41' E 135°11'0 0.0
2016-Apr-24 17:24N 34°41' E 135°11'0 0.0
2016-Apr-24 16:30N 34°41' E 135°11'0 0.0
2016-Apr-24 15:24N 34°41' E 135°11'0 0.0
2016-Apr-24 14:30N 34°41' E 135°11'0 0.0
2016-Apr-24 13:30N 34°41' E 135°11'0 0.0
2016-Apr-24 12:30N 34°41' E 135°11'7 7.2
2016-Apr-24 11:33N 34°36' E 135°06'1 1.2
2016-Apr-24 10:33N 34°37' E 135°06'6 5.4
2016-Apr-24 09:30N 34°41' E 135°11'3 2.9
2016-Apr-24 08:34N 34°38' E 135°11'3 2.6
2016-Apr-24 07:33N 34°37' E 135°14'4 4.1
2016-Apr-24 06:32N 34°41' E 135°11'0 0.0
2016-Apr-24 05:26N 34°41' E 135°11'2 2.7
2016-Apr-24 04:33N 34°38' E 135°11'3 2.7
2016-Apr-24 03:34N 34°37' E 135°14'4 4.1
2016-Apr-24 02:32N 34°41' E 135°11'0 0.0
2016-Apr-24 01:32N 34°41' E 135°11'0 0.0
2016-Apr-24 00:32N 34°41' E 135°11'0 0.0
2016-Apr-23 23:32N 34°41' E 135°11'0 0.0
2016-Apr-23 22:26N 34°41' E 135°11'0 0.0
2016-Apr-23 21:26N 34°41' E 135°11'0 0.0
2016-Apr-23 20:32N 34°41' E 135°11'0 0.0
2016-Apr-23 19:32N 34°41' E 135°11'0 0.0
2016-Apr-23 18:32N 34°41' E 135°11'0 0.0
2016-Apr-23 17:32N 34°41' E 135°11'0 0.0
2016-Apr-23 16:32N 34°41' E 135°11'0 0.0
2016-Apr-23 15:32N 34°41' E 135°11'0 0.0
2016-Apr-23 14:32N 34°41' E 135°11'0 0.0
2016-Apr-23 13:32N 34°41' E 135°11'0 0.0
2016-Apr-23 12:32N 34°41' E 135°11'7 6.6
2016-Apr-23 11:33N 34°36' E 135°06'2 1.8
2016-Apr-23 10:33N 34°37' E 135°08'5 4.8
2016-Apr-23 09:33N 34°41' E 135°11'3 2.6
2016-Apr-23 08:33N 34°38' E 135°11'3 3.1
2016-Apr-23 07:33N 34°37' E 135°14'4 3.2
2016-Apr-23 06:11N 34°41' E 135°11'3 1.6
2016-Apr-23 04:32N 34°38' E 135°11'3 3.1
2016-Apr-23 03:33N 34°37' E 135°14'4 4.0
2016-Apr-23 02:29N 34°41' E 135°11'0 0.0
2016-Apr-23 01:32N 34°41' E 135°11'0 0.0
2016-Apr-23 00:32N 34°41' E 135°11'0 0.0
2016-Apr-22 23:32N 34°41' E 135°11'0 0.0
2016-Apr-22 22:26N 34°41' E 135°11'0 0.0
2016-Apr-22 21:32N 34°41' E 135°11'0 0.0
2016-Apr-22 20:32N 34°41' E 135°11'0 0.0
2016-Apr-22 19:32N 34°41' E 135°11'0 0.0
2016-Apr-22 18:26N 34°41' E 135°11'0 0.0
2016-Apr-22 17:32N 34°41' E 135°11'0 0.0
2016-Apr-22 16:32N 34°41' E 135°11'0 0.0
2016-Apr-22 15:32N 34°41' E 135°11'0 0.0
2016-Apr-22 14:32N 34°41' E 135°11'0 0.0
2016-Apr-22 13:26N 34°41' E 135°11'0 0.0
2016-Apr-22 12:32N 34°41' E 135°11'8 7.8
2016-Apr-22 11:33N 34°35' E 135°05'2 2.3
2016-Apr-22 10:33N 34°37' E 135°07'5 5.3
2016-Apr-22 09:34N 34°41' E 135°11'5 5.1
2016-Apr-22 08:33N 34°37' E 135°07'5 4.1
2016-Apr-22 07:19N 34°41' E 135°11'0 0.0
2016-Apr-22 06:31N 34°41' E 135°11'0 0.0
2016-Apr-22 05:31N 34°41' E 135°11'2 2.5
2016-Apr-22 04:33N 34°38' E 135°11'3 2.6
2016-Apr-22 03:33N 34°37' E 135°14'4 3.6
2016-Apr-22 02:24N 34°41' E 135°11'0 0.0
2016-Apr-22 01:30N 34°41' E 135°11'0 0.0
2016-Apr-22 00:18N 34°41' E 135°11'0 0.0
2016-Apr-21 23:30N 34°41' E 135°11'0 0.0
2016-Apr-21 22:30N 34°41' E 135°11'0 0.0
2016-Apr-21 21:24N 34°41' E 135°11'0 0.0
2016-Apr-21 20:30N 34°41' E 135°11'0 0.0
2016-Apr-21 19:30N 34°41' E 135°11'0 0.0
2016-Apr-21 18:30N 34°41' E 135°11'0 0.0
2016-Apr-21 17:24N 34°41' E 135°11'0 0.0
2016-Apr-21 16:24N 34°41' E 135°11'0 0.0
2016-Apr-21 15:30N 34°41' E 135°11'0 0.0
2016-Apr-21 14:30N 34°41' E 135°11'0 0.0
2016-Apr-21 13:30N 34°41' E 135°11'0 0.0
2016-Apr-21 12:24N 34°41' E 135°11'6 7.4
2016-Apr-21 11:33N 34°36' E 135°06'1 1.0
2016-Apr-21 10:34N 34°37' E 135°06'6 5.6
2016-Apr-21 09:31N 34°41' E 135°11'5 5.2
2016-Apr-21 08:33N 34°37' E 135°07'5 4.7
2016-Apr-21 07:30N 34°41' E 135°11'0 0.0
2016-Apr-21 06:30N 34°41' E 135°11'0 0.0
2016-Apr-21 05:30N 34°41' E 135°11'2 2.7
2016-Apr-21 04:34N 34°38' E 135°11'3 2.6
2016-Apr-21 03:33N 34°37' E 135°14'4 3.6
2016-Apr-21 02:22N 34°41' E 135°11'0 0.0
2016-Apr-21 01:28N 34°41' E 135°11'0 0.0
2016-Apr-21 00:28N 34°41' E 135°11'0 0.0
2016-Apr-20 23:28N 34°41' E 135°11'0 0.0
2016-Apr-20 22:28N 34°41' E 135°11'0 0.0
2016-Apr-20 21:28N 34°41' E 135°11'0 0.0
2016-Apr-20 20:28N 34°41' E 135°11'0 0.0
2016-Apr-20 19:28N 34°41' E 135°11'  
Track history (hours):
 
Tides and Currents Weather Stations Pressure Air Temp Water Temp Dewpoint Dewpoint Depression Visibility Wind Speed Wind Dir Waves Ship Positions

Luminous Kobe-2

Last reported at 2016-Apr-30 18:30 UTC. Time now 2016-Apr-30 18:44 UTC.
Position N 34°41' E 135°11'.

Length 105 m; draft 4.5 m.

Type: Passenger vessel. MMSI: 431000469.

Date/timePositionNaut miles runAvg speedWind from/ knotsBaromVisibWave heightAir tempDewpointWater temp
2016-Apr-30 18:30N 34°41' E 135°11'0 0.0
2016-Apr-30 17:30N 34°41' E 135°11'0 0.0
2016-Apr-30 16:30N 34°41' E 135°11'0 0.0
2016-Apr-30 15:30N 34°41' E 135°11'0 0.0
2016-Apr-30 14:30N 34°41' E 135°11'0 0.0
2016-Apr-30 13:12N 34°41' E 135°11'0 0.0
2016-Apr-30 12:18N 34°41' E 135°11'710.0
2016-Apr-30 11:33N 34°35' E 135°06'4 3.5
2016-Apr-30 10:34N 34°37' E 135°09'4 3.6
2016-Apr-30 09:30N 34°41' E 135°11'7 7.5
2016-Apr-30 08:33N 34°35' E 135°06'2 2.4
2016-Apr-30 07:33N 34°37' E 135°08'5 4.1
2016-Apr-30 06:25N 34°41' E 135°11'0 0.0
2016-Apr-30 05:25N 34°41' E 135°11'2 2.8
2016-Apr-30 04:34N 34°38' E 135°11'3 3.0
2016-Apr-30 03:34N 34°37' E 135°14'4 4.3
2016-Apr-30 02:31N 34°41' E 135°11'0 0.0
2016-Apr-30 01:31N 34°41' E 135°11'0 0.0
2016-Apr-30 00:31N 34°41' E 135°11'0 0.0
2016-Apr-29 23:31N 34°41' E 135°11'0 0.0
2016-Apr-29 22:31N 34°41' E 135°11'0 0.0
2016-Apr-29 21:31N 34°41' E 135°11'0 0.0
2016-Apr-29 20:31N 34°41' E 135°11'0 0.0
2016-Apr-29 19:31N 34°41' E 135°11'0 0.0
2016-Apr-29 18:25N 34°41' E 135°11'0 0.0
2016-Apr-29 17:31N 34°41' E 135°11'0 0.0
2016-Apr-29 16:31N 34°41' E 135°11'0 0.0
2016-Apr-29 15:31N 34°41' E 135°11'0 0.0
2016-Apr-29 14:31N 34°41' E 135°11'0 0.0
2016-Apr-29 13:31N 34°41' E 135°11'0 0.0
2016-Apr-29 12:19N 34°41' E 135°11'810.6
2016-Apr-29 11:33N 34°34' E 135°05'4 4.0
2016-Apr-29 10:33N 34°37' E 135°09'4 3.2
2016-Apr-29 09:15N 34°41' E 135°11'3 3.8
2016-Apr-29 08:33N 34°38' E 135°11'2 2.1
2016-Apr-29 07:34N 34°37' E 135°13'4 3.5
2016-Apr-29 06:28N 34°41' E 135°11'0 0.0
2016-Apr-29 05:28N 34°41' E 135°11'3 3.0
2016-Apr-29 04:33N 34°38' E 135°11'2 2.2
2016-Apr-29 03:33N 34°37' E 135°13'4 3.9
2016-Apr-29 02:30N 34°41' E 135°11'0 0.0
2016-Apr-29 01:24N 34°41' E 135°11'0 0.0
2016-Apr-29 00:18N 34°41' E 135°11'0 0.0
2016-Apr-28 23:30N 34°41' E 135°11'0 0.0
2016-Apr-28 22:30N 34°41' E 135°11'0 0.0
2016-Apr-28 21:24N 34°41' E 135°11'0 0.0
2016-Apr-28 20:30N 34°41' E 135°11'0 0.0
2016-Apr-28 19:30N 34°41' E 135°11'0 0.0
2016-Apr-28 18:30N 34°41' E 135°11'0 0.0
2016-Apr-28 17:24N 34°41' E 135°11'0 0.0
2016-Apr-28 16:30N 34°41' E 135°11'0 0.0
2016-Apr-28 15:30N 34°41' E 135°11'0 0.0
2016-Apr-28 14:30N 34°41' E 135°11'0 0.0
2016-Apr-28 13:30N 34°41' E 135°11'0 0.0
2016-Apr-28 12:30N 34°41' E 135°11'7 7.1
2016-Apr-28 11:34N 34°36' E 135°06'1 1.0
2016-Apr-28 10:34N 34°37' E 135°07'6 5.5
2016-Apr-28 09:33N 34°41' E 135°11'5 4.8
2016-Apr-28 08:32N 34°37' E 135°07'5 4.5
2016-Apr-28 07:28N 34°41' E 135°11'0 0.0
2016-Apr-28 06:22N 34°41' E 135°11'0 0.0
2016-Apr-28 05:28N 34°41' E 135°11'3 2.8
2016-Apr-28 04:33N 34°38' E 135°11'3 2.6
2016-Apr-28 03:33N 34°37' E 135°13'4 4.2
2016-Apr-28 02:32N 34°41' E 135°11'0 0.0
2016-Apr-28 01:32N 34°41' E 135°11'0 0.0
2016-Apr-28 00:32N 34°41' E 135°11'0 0.0
2016-Apr-27 23:26N 34°41' E 135°11'0 0.0
2016-Apr-27 22:26N 34°41' E 135°11'0 0.0
2016-Apr-27 21:26N 34°41' E 135°11'0 0.0
2016-Apr-27 20:32N 34°41' E 135°11'0 0.0
2016-Apr-27 19:26N 34°41' E 135°11'0 0.0
2016-Apr-27 18:32N 34°41' E 135°11'0 0.0
2016-Apr-27 17:32N 34°41' E 135°11'0 0.0
2016-Apr-27 16:32N 34°41' E 135°11'0 0.0
2016-Apr-27 15:32N 34°41' E 135°11'0 0.0
2016-Apr-27 14:32N 34°41' E 135°11'0 0.0
2016-Apr-27 13:32N 34°41' E 135°11'0 0.0
2016-Apr-27 12:32N 34°41' E 135°11'6 6.4
2016-Apr-27 11:33N 34°36' E 135°07'1 1.1
2016-Apr-27 10:34N 34°37' E 135°07'6 5.5
2016-Apr-27 09:33N 34°41' E 135°11'5 4.8
2016-Apr-27 08:33N 34°38' E 135°07'5 4.7
2016-Apr-27 07:32N 34°41' E 135°11'0 0.0
2016-Apr-27 06:32N 34°41' E 135°11'0 0.0
2016-Apr-27 05:20N 34°41' E 135°11'3 3.3
2016-Apr-27 04:34N 34°38' E 135°11'3 2.7
2016-Apr-27 03:34N 34°37' E 135°14'4 4.0
2016-Apr-27 02:30N 34°41' E 135°11'0 0.0
2016-Apr-27 01:30N 34°41' E 135°11'0 0.0
2016-Apr-27 00:12N 34°41' E 135°11'0 0.0
2016-Apr-26 23:30N 34°41' E 135°11'0 0.0
2016-Apr-26 22:30N 34°41' E 135°11'0 0.0
2016-Apr-26 21:30N 34°41' E 135°11'0 0.0
2016-Apr-26 20:24N 34°41' E 135°11'0 0.0
2016-Apr-26 19:30N 34°41' E 135°11'0 0.0
2016-Apr-26 18:30N 34°41' E 135°11'0 0.0
2016-Apr-26 17:24N 34°41' E 135°11'0 0.0
2016-Apr-26 16:30N 34°41' E 135°11'0 0.0
2016-Apr-26 15:30N 34°41' E 135°11'0 0.0
2016-Apr-26 14:30N 34°41' E 135°11'0 0.0
2016-Apr-26 13:30N 34°41' E 135°11'0 0.0
2016-Apr-26 12:30N 34°41' E 135°11'7 7.2
2016-Apr-26 11:33N 34°35' E 135°06'2 1.5
2016-Apr-26 10:33N 34°37' E 135°07'5 5.0
2016-Apr-26 09:28N 34°41' E 135°11'5 5.0
2016-Apr-26 08:33N 34°38' E 135°07'5 4.6
2016-Apr-26 07:32N 34°41' E 135°11'0 0.0
2016-Apr-26 06:32N 34°41' E 135°11'0 0.0
2016-Apr-26 05:32N 34°41' E 135°11'3 3.1
2016-Apr-26 04:33N 34°38' E 135°10'4 3.8
2016-Apr-26 03:33N 34°37' E 135°14'4 4.0
2016-Apr-26 02:31N 34°41' E 135°11'1 1.3
2016-Apr-26 01:33N 34°40' E 135°11'1 1.2
2016-Apr-26 00:29N 34°41' E 135°11'0 0.0
2016-Apr-25 23:17N 34°41' E 135°11'0 0.0
2016-Apr-25 22:23N 34°41' E 135°11'0 0.0
2016-Apr-25 21:17N 34°41' E 135°11'0 0.0
2016-Apr-25 20:29N 34°41' E 135°11'0 0.0
2016-Apr-25 19:29N 34°41' E 135°11'0 0.0
2016-Apr-25 18:29N 34°41' E 135°11'0 0.0
2016-Apr-25 17:29N 34°41' E 135°11'0 0.0
2016-Apr-25 16:29N 34°41' E 135°11'0 0.0
2016-Apr-25 15:29N 34°41' E 135°11'0 0.0
2016-Apr-25 14:29N 34°41' E 135°11'0 0.0
2016-Apr-25 13:29N 34°41' E 135°11'0 0.0
2016-Apr-25 12:29N 34°41' E 135°11'7 7.7
2016-Apr-25 11:34N 34°35' E 135°06'2 1.6
2016-Apr-25 10:33N 34°37' E 135°07'6 5.5
2016-Apr-25 09:33N 34°41' E 135°11'5 4.8
2016-Apr-25 08:34N 34°38' E 135°07'5 4.8
2016-Apr-25 07:33N 34°41' E 135°11'0 0.0
2016-Apr-25 06:27N 34°41' E 135°11'0 0.0
2016-Apr-25 05:33N 34°41' E 135°11'2 2.3
2016-Apr-25 04:34N 34°39' E 135°11'3 2.8
2016-Apr-25 03:34N 34°37' E 135°14'5 4.4
2016-Apr-25 02:30N 34°41' E 135°11'0 0.0
2016-Apr-25 01:30N 34°41' E 135°11'0 0.0
2016-Apr-25 00:30N 34°41' E 135°11'0 0.0
2016-Apr-24 23:24N 34°41' E 135°11'0 0.0
2016-Apr-24 22:30N 34°41' E 135°11'0 0.0
2016-Apr-24 21:24N 34°41' E 135°11'0 0.0
2016-Apr-24 20:30N 34°41' E 135°11'0 0.0
2016-Apr-24 19:24N 34°41' E 135°11'0 0.0
2016-Apr-24 18:30N 34°41' E 135°11'0 0.0
2016-Apr-24 17:24N 34°41' E 135°11'0 0.0
2016-Apr-24 16:30N 34°41' E 135°11'0 0.0
2016-Apr-24 15:24N 34°41' E 135°11'0 0.0
2016-Apr-24 14:30N 34°41' E 135°11'0 0.0
2016-Apr-24 13:30N 34°41' E 135°11'0 0.0
2016-Apr-24 12:30N 34°41' E 135°11'7 7.2
2016-Apr-24 11:33N 34°36' E 135°06'1 1.2
2016-Apr-24 10:33N 34°37' E 135°06'6 5.4
2016-Apr-24 09:30N 34°41' E 135°11'3 2.9
2016-Apr-24 08:34N 34°38' E 135°11'3 2.6
2016-Apr-24 07:33N 34°37' E 135°14'4 4.1
2016-Apr-24 06:32N 34°41' E 135°11'0 0.0
2016-Apr-24 05:26N 34°41' E 135°11'2 2.7
2016-Apr-24 04:33N 34°38' E 135°11'3 2.7
2016-Apr-24 03:34N 34°37' E 135°14'4 4.1
2016-Apr-24 02:32N 34°41' E 135°11'0 0.0
2016-Apr-24 01:32N 34°41' E 135°11'0 0.0
2016-Apr-24 00:32N 34°41' E 135°11'0 0.0
2016-Apr-23 23:32N 34°41' E 135°11'0 0.0
2016-Apr-23 22:26N 34°41' E 135°11'0 0.0
2016-Apr-23 21:26N 34°41' E 135°11'0 0.0
2016-Apr-23 20:32N 34°41' E 135°11'0 0.0
2016-Apr-23 19:32N 34°41' E 135°11'0 0.0
2016-Apr-23 18:32N 34°41' E 135°11'0 0.0
2016-Apr-23 17:32N 34°41' E 135°11'0 0.0
2016-Apr-23 16:32N 34°41' E 135°11'0 0.0
2016-Apr-23 15:32N 34°41' E 135°11'0 0.0
2016-Apr-23 14:32N 34°41' E 135°11'0 0.0
2016-Apr-23 13:32N 34°41' E 135°11'0 0.0
2016-Apr-23 12:32N 34°41' E 135°11'7 6.6
2016-Apr-23 11:33N 34°36' E 135°06'2 1.8
2016-Apr-23 10:33N 34°37' E 135°08'5 4.8
2016-Apr-23 09:33N 34°41' E 135°11'3 2.6
2016-Apr-23 08:33N 34°38' E 135°11'3 3.1
2016-Apr-23 07:33N 34°37' E 135°14'4 3.2
2016-Apr-23 06:11N 34°41' E 135°11'3 1.6
2016-Apr-23 04:32N 34°38' E 135°11'3 3.1
2016-Apr-23 03:33N 34°37' E 135°14'4 4.0
2016-Apr-23 02:29N 34°41' E 135°11'0 0.0
2016-Apr-23 01:32N 34°41' E 135°11'0 0.0
2016-Apr-23 00:32N 34°41' E 135°11'0 0.0
2016-Apr-22 23:32N 34°41' E 135°11'0 0.0
2016-Apr-22 22:26N 34°41' E 135°11'0 0.0
2016-Apr-22 21:32N 34°41' E 135°11'0 0.0
2016-Apr-22 20:32N 34°41' E 135°11'0 0.0
2016-Apr-22 19:32N 34°41' E 135°11'0 0.0
2016-Apr-22 18:26N 34°41' E 135°11'0 0.0
2016-Apr-22 17:32N 34°41' E 135°11'0 0.0
2016-Apr-22 16:32N 34°41' E 135°11'0 0.0
2016-Apr-22 15:32N 34°41' E 135°11'0 0.0
2016-Apr-22 14:32N 34°41' E 135°11'0 0.0
2016-Apr-22 13:26N 34°41' E 135°11'0 0.0
2016-Apr-22 12:32N 34°41' E 135°11'8 7.8
2016-Apr-22 11:33N 34°35' E 135°05'2 2.3
2016-Apr-22 10:33N 34°37' E 135°07'5 5.3
2016-Apr-22 09:34N 34°41' E 135°11'5 5.1
2016-Apr-22 08:33N 34°37' E 135°07'5 4.1
2016-Apr-22 07:19N 34°41' E 135°11'0 0.0
2016-Apr-22 06:31N 34°41' E 135°11'0 0.0
2016-Apr-22 05:31N 34°41' E 135°11'2 2.5
2016-Apr-22 04:33N 34°38' E 135°11'3 2.6
2016-Apr-22 03:33N 34°37' E 135°14'4 3.6
2016-Apr-22 02:24N 34°41' E 135°11'0 0.0
2016-Apr-22 01:30N 34°41' E 135°11'0 0.0
2016-Apr-22 00:18N 34°41' E 135°11'0 0.0
2016-Apr-21 23:30N 34°41' E 135°11'0 0.0
2016-Apr-21 22:30N 34°41' E 135°11'0 0.0
2016-Apr-21 21:24N 34°41' E 135°11'0 0.0
2016-Apr-21 20:30N 34°41' E 135°11'0 0.0
2016-Apr-21 19:30N 34°41' E 135°11'0 0.0
2016-Apr-21 18:30N 34°41' E 135°11'0 0.0
2016-Apr-21 17:24N 34°41' E 135°11'0 0.0
2016-Apr-21 16:24N 34°41' E 135°11'0 0.0
2016-Apr-21 15:30N 34°41' E 135°11'0 0.0
2016-Apr-21 14:30N 34°41' E 135°11'0 0.0
2016-Apr-21 13:30N 34°41' E 135°11'0 0.0
2016-Apr-21 12:24N 34°41' E 135°11'6 7.4
2016-Apr-21 11:33N 34°36' E 135°06'1 1.0
2016-Apr-21 10:34N 34°37' E 135°06'6 5.6
2016-Apr-21 09:31N 34°41' E 135°11'5 5.2
2016-Apr-21 08:33N 34°37' E 135°07'5 4.7
2016-Apr-21 07:30N 34°41' E 135°11'0 0.0
2016-Apr-21 06:30N 34°41' E 135°11'0 0.0
2016-Apr-21 05:30N 34°41' E 135°11'2 2.7
2016-Apr-21 04:34N 34°38' E 135°11'3 2.6
2016-Apr-21 03:33N 34°37' E 135°14'4 3.6
2016-Apr-21 02:22N 34°41' E 135°11'0 0.0
2016-Apr-21 01:28N 34°41' E 135°11'0 0.0
2016-Apr-21 00:28N 34°41' E 135°11'0 0.0
2016-Apr-20 23:28N 34°41' E 135°11'0 0.0
2016-Apr-20 22:28N 34°41' E 135°11'0 0.0
2016-Apr-20 21:28N 34°41' E 135°11'0 0.0
2016-Apr-20 20:28N 34°41' E 135°11'0 0.0
2016-Apr-20 19:28N 34°41' E 135°11'  

Dump ship's entire track history